Time;durP1;ratioP1;P1;durP2;ratioP2;P2;SDS_P1;SDS_P2;PMS_P1;PMS_P2;Temp;Humidity;BMP_temperature;BMP_pressure;BME280_temperature;BME280_humidity;BME280_pressure;Samples;Min_cycle;Max_cycle;Signal;HPM_P1;HPM_P2
2023/04/17 00:02:09;;;;;;;1.02;0.77;;;;;;;15.03;52.17;99258.97;4488232;31;34880;-64
2023/04/17 00:04:39;;;;;;;1.67;1.23;;;;;;;15.45;51.19;99262.84;4489451;31;33529;-62
2023/04/17 00:07:08;;;;;;;1.50;1.20;;;;;;;15.31;51.46;99266.94;4486973;31;34579;-62
2023/04/17 00:09:35;;;;;;;1.02;0.93;;;;;;;14.76;52.81;99265.28;4496997;31;34148;-63
2023/04/17 00:12:03;;;;;;;2.47;1.30;;;;;;;14.95;52.54;99266.97;4493910;31;32586;-64
2023/04/17 00:14:30;;;;;;;2.05;1.35;;;;;;;15.05;52.43;99270.44;4493314;31;33228;-63
2023/04/17 00:16:58;;;;;;;2.15;1.27;;;;;;;15.36;51.51;99267.31;4493288;31;34645;-63
2023/04/17 00:19:26;;;;;;;3.40;1.65;;;;;;;15.00;52.68;99269.22;4492609;31;35260;-64
2023/04/17 00:21:53;;;;;;;2.05;1.30;;;;;;;15.35;51.72;99271.03;4494871;31;34040;-64
2023/04/17 00:24:20;;;;;;;1.65;1.33;;;;;;;14.53;53.90;99264.88;4485312;31;34140;-63
2023/04/17 00:26:48;;;;;;;3.50;0.95;;;;;;;15.29;51.90;99256.31;4481389;31;34592;-62
2023/04/17 00:29:16;;;;;;;1.37;0.85;;;;;;;15.40;51.65;99257.91;4490188;31;32257;-62
2023/04/17 00:31:43;;;;;;;1.87;1.30;;;;;;;15.56;51.11;99247.22;4485043;31;35271;-63
2023/04/17 00:34:11;;;;;;;1.20;0.90;;;;;;;15.52;51.42;99250.41;4491401;31;34407;-63
2023/04/17 00:36:38;;;;;;;1.30;1.00;;;;;;;15.52;51.44;99248.56;4485865;31;34696;-63
2023/04/17 00:39:06;;;;;;;3.75;1.10;;;;;;;15.55;51.23;99242.00;4482341;31;33727;-63
2023/04/17 00:41:33;;;;;;;2.17;1.27;;;;;;;15.58;51.08;99256.03;4492816;31;34916;-63
2023/04/17 00:44:01;;;;;;;1.55;1.17;;;;;;;15.35;51.69;99252.16;4492226;31;33573;-64
2023/04/17 00:46:29;;;;;;;1.80;1.20;;;;;;;15.62;50.99;99253.84;4494362;31;33550;-63
2023/04/17 00:48:57;;;;;;;1.98;0.90;;;;;;;15.66;50.90;99257.06;4481784;31;33753;-64
2023/04/17 00:51:24;;;;;;;1.67;1.08;;;;;;;15.60;51.16;99259.41;4486404;31;33557;-63
2023/04/17 00:53:52;;;;;;;1.83;1.12;;;;;;;15.61;51.03;99246.78;4480358;31;34247;-63
2023/04/17 00:56:20;;;;;;;2.58;1.62;;;;;;;15.73;50.63;99250.06;4489209;31;33580;-64
2023/04/17 00:58:47;;;;;;;1.48;1.20;;;;;;;15.68;50.94;99247.00;4488818;31;33990;-63
2023/04/17 01:01:16;;;;;;;2.62;1.40;;;;;;;15.63;51.07;99250.12;4487243;31;34648;-62
2023/04/17 01:03:44;;;;;;;1.35;1.20;;;;;;;15.49;51.32;99250.75;4488418;31;34289;-64
2023/04/17 01:06:12;;;;;;;3.12;1.92;;;;;;;15.67;50.84;99248.03;4492457;31;34934;-62
2023/04/17 01:08:42;;;;;;;1.60;1.35;;;;;;;15.53;51.39;99244.00;4489248;31;33681;-63
2023/04/17 01:11:11;;;;;;;2.35;1.92;;;;;;;15.52;51.22;99248.56;4494293;31;33746;-63
2023/04/17 01:13:51;;;;;;;2.08;1.37;;;;;;;15.64;51.05;99251.84;4490446;31;34136;-62
2023/04/17 01:16:19;;;;;;;1.60;1.12;;;;;;;15.78;50.66;99239.66;4494499;31;33679;-63
2023/04/17 01:18:47;;;;;;;1.10;0.80;;;;;;;15.57;51.29;99245.41;4487357;31;34019;-62
2023/04/17 01:21:15;;;;;;;0.73;0.68;;;;;;;15.79;50.55;99241.34;4497722;31;33625;-63
2023/04/17 01:23:50;;;;;;;3.80;1.92;;;;;;;15.86;50.33;99239.72;4493101;31;33162;-63
2023/04/17 01:26:22;;;;;;;1.00;0.70;;;;;;;15.62;50.97;99248.47;4497904;31;34993;-63
2023/04/17 01:28:52;;;;;;;2.17;1.20;;;;;;;15.57;51.10;99240.00;4486556;31;33528;-64
2023/04/17 01:31:21;;;;;;;1.87;1.17;;;;;;;15.71;50.79;99241.31;4483769;31;33848;-64
2023/04/17 01:33:49;;;;;;;2.53;1.48;;;;;;;15.59;51.16;99238.81;4491245;31;34875;-64
2023/04/17 01:36:17;;;;;;;2.83;1.33;;;;;;;15.77;50.70;99240.66;4480962;31;32370;-63
2023/04/17 01:38:45;;;;;;;2.53;1.55;;;;;;;15.83;50.57;99231.94;4487685;31;33926;-64
2023/04/17 01:41:12;;;;;;;2.37;1.27;;;;;;;15.92;50.33;99230.09;4496136;31;33513;-63
2023/04/17 01:43:45;;;;;;;2.78;1.50;;;;;;;15.69;50.87;99233.34;4487866;31;34494;-64
2023/04/17 01:46:13;;;;;;;2.55;1.75;;;;;;;15.49;51.52;99232.69;4484244;31;34785;-64
2023/04/17 01:48:40;;;;;;;2.28;2.05;;;;;;;15.82;50.54;99232.91;4490612;31;33955;-64
2023/04/17 01:51:08;;;;;;;2.03;1.37;;;;;;;15.84;50.45;99236.31;4496102;31;34412;-63
2023/04/17 01:53:37;;;;;;;2.37;1.33;;;;;;;15.93;50.22;99240.75;4485247;31;33387;-63
2023/04/17 01:56:05;;;;;;;3.00;1.40;;;;;;;15.94;50.18;99236.19;4480609;31;34831;-63
2023/04/17 01:58:34;;;;;;;2.80;1.55;;;;;;;15.79;50.46;99241.34;4488629;31;33953;-64
2023/04/17 02:01:01;;;;;;;2.30;1.60;;;;;;;15.70;50.83;99236.91;4493340;31;34980;-64
2023/04/17 02:03:30;;;;;;;2.15;1.60;;;;;;;15.85;50.56;99240.69;4491872;31;34192;-63
2023/04/17 02:05:57;;;;;;;2.22;1.33;;;;;;;15.84;50.63;99228.22;4497208;31;35077;-63
2023/04/17 02:08:25;;;;;;;2.72;1.58;;;;;;;15.89;50.32;99230.41;4487190;31;33687;-63
2023/04/17 02:10:53;;;;;;;2.58;1.90;;;;;;;15.88;50.42;99229.56;4495634;31;34755;-62
2023/04/17 02:13:21;;;;;;;2.55;1.90;;;;;;;15.91;50.34;99231.13;4492943;31;32138;-63
2023/04/17 02:15:48;;;;;;;2.65;1.60;;;;;;;15.84;50.52;99231.75;4493995;31;34833;-62
2023/04/17 02:18:16;;;;;;;3.00;1.27;;;;;;;15.58;51.27;99237.16;4492099;31;33688;-63
2023/04/17 02:20:44;;;;;;;1.65;1.23;;;;;;;15.56;51.16;99232.91;4497704;31;34316;-63
2023/04/17 02:23:11;;;;;;;1.65;1.12;;;;;;;15.27;51.86;99238.59;4483338;31;33267;-63
2023/04/17 02:25:39;;;;;;;3.00;2.03;;;;;;;15.19;52.19;99241.25;4492990;31;35090;-64
2023/04/17 02:28:06;;;;;;;1.83;1.60;;;;;;;15.33;51.75;99235.28;4492712;31;34184;-64
2023/04/17 02:30:34;;;;;;;1.95;1.75;;;;;;;15.27;51.74;99230.53;4493445;31;33670;-66
2023/04/17 02:33:01;;;;;;;2.75;1.37;;;;;;;15.07;52.38;99227.16;4489382;31;36776;-65
2023/04/17 02:35:30;;;;;;;1.25;1.00;;;;;;;15.18;52.29;99223.37;4496692;31;33877;-64
2023/04/17 02:37:58;;;;;;;1.75;1.05;;;;;;;15.36;51.74;99222.34;4495128;31;33610;-64
2023/04/17 02:40:26;;;;;;;1.12;0.88;;;;;;;15.07;52.44;99219.09;4492909;31;33780;-63
2023/04/17 02:42:54;;;;;;;2.28;1.37;;;;;;;15.36;51.82;99218.78;4488091;31;33296;-65
2023/04/17 02:45:21;;;;;;;3.35;1.90;;;;;;;15.28;51.60;99216.03;4495087;31;32659;-64
2023/04/17 02:47:49;;;;;;;2.65;1.67;;;;;;;14.99;52.34;99216.31;4493755;31;35144;-63
2023/04/17 02:50:17;;;;;;;2.75;1.65;;;;;;;15.16;51.92;99207.38;4491220;31;33860;-64
2023/04/17 02:52:45;;;;;;;5.87;1.67;;;;;;;14.99;52.56;99216.31;4486655;31;33542;-63
2023/04/17 02:55:13;;;;;;;1.85;1.25;;;;;;;15.25;52.13;99213.66;4486505;31;33828;-64
2023/04/17 02:57:40;;;;;;;2.97;1.58;;;;;;;15.46;51.36;99222.22;4488951;31;33829;-64
2023/04/17 03:00:12;;;;;;;2.90;1.75;;;;;;;15.23;51.83;99221.06;4489700;31;33845;-64
2023/04/17 03:02:40;;;;;;;3.40;1.77;;;;;;;15.39;51.71;99221.16;4494040;31;33293;-66
2023/04/17 03:05:10;;;;;;;2.30;1.23;;;;;;;15.46;51.27;99221.38;4491206;31;34957;-63
2023/04/17 03:07:37;;;;;;;2.83;1.58;;;;;;;15.43;51.48;99227.94;4495597;31;34956;-68
2023/04/17 03:10:07;;;;;;;1.77;1.23;;;;;;;15.64;50.77;99237.53;4491035;31;34936;-63
2023/04/17 03:12:34;;;;;;;2.47;1.75;;;;;;;15.57;51.13;99234.62;4485761;31;33688;-64
2023/04/17 03:15:02;;;;;;;4.45;2.35;;;;;;;15.58;50.74;99233.59;4488530;31;33727;-65
2023/04/17 03:17:30;;;;;;;2.28;1.50;;;;;;;15.14;52.15;99239.84;4489793;31;34940;-66
2023/04/17 03:19:58;;;;;;;1.37;1.17;;;;;;;15.42;51.55;99242.44;4496048;31;33822;-65
2023/04/17 03:22:25;;;;;;;3.30;1.05;;;;;;;15.31;50.58;99237.28;4485787;31;33154;-64
2023/04/17 03:24:53;;;;;;;3.50;2.12;;;;;;;15.15;51.06;99229.91;4485809;31;33764;-64
2023/04/17 03:27:23;;;;;;;0.75;0.73;;;;;;;15.47;50.43;99236.56;4484851;31;32632;-65
2023/04/17 03:29:53;;;;;;;1.95;0.95;;;;;;;15.60;49.62;99239.66;4491190;31;33563;-64
2023/04/17 03:32:21;;;;;;;1.75;1.10;;;;;;;15.75;49.33;99238.09;4490011;31;32495;-64
2023/04/17 03:34:48;;;;;;;2.92;1.12;;;;;;;15.77;49.00;99237.97;4488388;31;34256;-64
2023/04/17 03:37:16;;;;;;;2.60;1.10;;;;;;;15.76;48.99;99234.44;4483627;31;33816;-62
2023/04/17 03:39:44;;;;;;;1.02;0.82;;;;;;;15.73;48.69;99231.19;4492350;31;33690;-62
2023/04/17 03:42:13;;;;;;;1.58;1.02;;;;;;;15.28;49.74;99241.16;4495372;31;31804;-62
2023/04/17 03:44:41;;;;;;;2.55;1.77;;;;;;;15.43;49.15;99244.13;4492328;31;34150;-62
2023/04/17 03:47:10;;;;;;;1.27;0.85;;;;;;;15.54;48.64;99237.63;4487809;31;34407;-62
2023/04/17 03:49:39;;;;;;;3.08;1.55;;;;;;;15.60;48.43;99237.84;4490335;31;32532;-64
2023/04/17 03:52:07;;;;;;;2.00;0.80;;;;;;;15.80;47.72;99237.66;4495934;31;32291;-62
2023/04/17 03:54:34;;;;;;;3.00;1.25;;;;;;;15.77;47.53;99238.81;4491396;31;33637;-62
2023/04/17 03:57:02;;;;;;;1.98;1.33;;;;;;;15.54;48.07;99240.34;4494839;31;33900;-63
2023/04/17 03:59:30;;;;;;;2.35;1.67;;;;;;;15.82;47.91;99238.31;4483544;31;35081;-63
2023/04/17 04:01:58;;;;;;;1.45;0.95;;;;;;;15.76;48.19;99238.94;4484541;31;33660;-63
2023/04/17 04:04:26;;;;;;;1.55;1.15;;;;;;;15.61;48.51;99242.22;4490475;31;33851;-64
2023/04/17 04:06:56;;;;;;;12.45;1.37;;;;;;;15.65;48.39;99242.75;4493096;31;33000;-64
2023/04/17 04:09:24;;;;;;;1.25;0.88;;;;;;;16.07;47.57;99250.06;4495975;31;34356;-64
2023/04/17 04:11:52;;;;;;;1.17;0.73;;;;;;;16.05;47.53;99246.69;4484811;31;33287;-63
2023/04/17 04:14:20;;;;;;;1.87;1.35;;;;;;;16.03;47.78;99243.31;4491071;31;33633;-63
2023/04/17 04:16:48;;;;;;;1.80;1.27;;;;;;;15.98;48.36;99259.16;4492277;31;33832;-63
2023/04/17 04:19:16;;;;;;;3.67;2.00;;;;;;;16.03;48.47;99262.22;4482319;31;35124;-63
2023/04/17 04:21:43;;;;;;;1.65;1.23;;;;;;;15.92;48.72;99260.66;4482966;31;34340;-62
2023/04/17 04:24:13;;;;;;;1.75;1.30;;;;;;;15.80;49.20;99251.97;4483334;31;33714;-62
2023/04/17 04:26:42;;;;;;;4.43;1.48;;;;;;;15.63;50.04;99263.63;4484473;31;34263;-62
2023/04/17 04:29:10;;;;;;;0.98;0.85;;;;;;;15.88;49.22;99258.41;4491711;31;32730;-62
2023/04/17 04:31:39;;;;;;;2.92;1.80;;;;;;;16.04;48.87;99255.81;4489974;31;33141;-62
2023/04/17 04:34:08;;;;;;;1.77;1.33;;;;;;;16.01;49.05;99265.06;4492903;31;34047;-62
2023/04/17 04:36:40;;;;;;;1.12;0.90;;;;;;;15.94;49.07;99257.78;4487927;31;33949;-63
2023/04/17 04:39:08;;;;;;;0.75;0.75;;;;;;;15.82;48.95;99266.12;4489087;31;35338;-61
2023/04/17 04:41:37;;;;;;;1.25;0.93;;;;;;;16.07;48.12;99269.81;4492889;31;33025;-63
2023/04/17 04:44:04;;;;;;;2.03;1.12;;;;;;;16.22;47.78;99280.03;4494597;31;34871;-63
2023/04/17 04:46:33;;;;;;;1.67;1.50;;;;;;;16.21;47.86;99279.19;4491286;31;33641;-63
2023/04/17 04:49:01;;;;;;;2.50;1.52;;;;;;;15.99;48.53;99279.75;4486861;31;34098;-62
2023/04/17 04:51:30;;;;;;;3.28;1.90;;;;;;;15.89;49.04;99287.97;4490802;31;34423;-63
2023/04/17 04:53:58;;;;;;;2.20;1.30;;;;;;;15.87;49.21;99286.44;4492963;31;33709;-62
2023/04/17 04:56:27;;;;;;;3.00;1.48;;;;;;;15.77;49.64;99287.38;4484628;31;33890;-62
2023/04/17 04:58:57;;;;;;;2.60;1.42;;;;;;;15.58;49.99;99291.09;4489888;31;32932;-63
2023/04/17 05:01:26;;;;;;;3.37;1.83;;;;;;;15.75;49.81;99288.53;4486819;31;34494;-62
2023/04/17 05:03:54;;;;;;;3.85;1.77;;;;;;;15.69;49.84;99295.41;4489563;31;33917;-62
2023/04/17 05:06:23;;;;;;;1.85;1.12;;;;;;;15.57;50.22;99289.41;4486589;31;33860;-61
2023/04/17 05:08:52;;;;;;;2.55;1.48;;;;;;;15.50;50.36;99293.72;4484562;31;34783;-64
2023/04/17 05:11:20;;;;;;;2.53;1.48;;;;;;;15.37;50.62;99301.38;4489047;31;33334;-63
2023/04/17 05:13:47;;;;;;;2.03;1.52;;;;;;;15.50;49.82;99295.56;4496073;31;33690;-64
2023/04/17 05:16:16;;;;;;;1.83;1.40;;;;;;;15.70;49.02;99294.41;4482344;31;32764;-66
2023/04/17 05:18:46;;;;;;;3.60;1.48;;;;;;;15.79;49.26;99301.56;4495760;31;35005;-64
2023/04/17 05:21:14;;;;;;;2.67;1.45;;;;;;;15.77;48.75;99300.03;4492685;31;34383;-65
2023/04/17 05:23:42;;;;;;;3.50;1.65;;;;;;;15.94;47.79;99298.25;4486502;31;33886;-64
2023/04/17 05:26:10;;;;;;;2.25;1.30;;;;;;;15.22;48.92;99297.56;4494278;31;33022;-64
2023/04/17 05:28:39;;;;;;;2.17;1.65;;;;;;;15.75;47.17;99293.94;4495416;31;34191;-64
2023/04/17 05:31:07;;;;;;;1.65;1.40;;;;;;;15.89;47.14;99298.75;4482623;31;33207;-66
2023/04/17 05:33:35;;;;;;;3.20;1.45;;;;;;;15.21;48.65;99302.06;4493744;31;32781;-66
2023/04/17 05:36:04;;;;;;;2.40;1.42;;;;;;;15.38;48.88;99303.09;4488300;31;32864;-65
2023/04/17 05:38:33;;;;;;;2.30;1.52;;;;;;;15.95;47.31;99298.09;4483957;31;33764;-65
2023/04/17 05:41:07;;;;;;;4.75;1.15;;;;;;;16.30;46.40;99304.34;4488430;31;34437;-64
2023/04/17 05:43:36;;;;;;;2.42;1.62;;;;;;;16.13;46.69;99302.59;4485748;31;34779;-65
2023/04/17 05:46:04;;;;;;;2.78;1.87;;;;;;;16.11;46.95;99304.59;4495153;31;33790;-65
2023/04/17 05:48:32;;;;;;;3.47;1.98;;;;;;;16.49;46.25;99306.78;4491761;31;33896;-63
2023/04/17 05:51:02;;;;;;;4.65;2.10;;;;;;;16.58;46.28;99304.12;4494443;31;33279;-64
2023/04/17 05:53:31;;;;;;;4.70;1.90;;;;;;;16.23;47.11;99300.59;4490985;31;32755;-63
2023/04/17 05:56:00;;;;;;;4.22;2.12;;;;;;;16.24;47.28;99305.88;4495537;31;33724;-63
2023/04/17 05:58:29;;;;;;;1.80;0.95;;;;;;;16.50;46.28;99305.81;4492796;31;33886;-65
2023/04/17 06:00:57;;;;;;;2.62;1.50;;;;;;;16.59;46.78;99306.66;4488216;31;33562;-63
2023/04/17 06:03:25;;;;;;;2.05;1.23;;;;;;;16.73;46.28;99311.44;4485863;31;33913;-63
2023/04/17 06:05:55;;;;;;;2.40;1.75;;;;;;;16.70;46.39;99308.22;4484779;31;33961;-64
2023/04/17 06:08:24;;;;;;;1.98;1.37;;;;;;;16.79;46.67;99311.81;4484130;31;32859;-63
2023/04/17 06:10:54;;;;;;;3.30;1.85;;;;;;;16.92;46.48;99307.63;4490632;31;34462;-63
2023/04/17 06:13:23;;;;;;;2.45;1.55;;;;;;;17.14;46.14;99310.69;4491262;31;32422;-63
2023/04/17 06:15:51;;;;;;;2.10;1.65;;;;;;;17.16;45.97;99314.91;4495852;31;34984;-64
2023/04/17 06:18:18;;;;;;;2.17;1.52;;;;;;;17.37;45.34;99309.03;4489844;31;33482;-63
2023/04/17 06:20:46;;;;;;;2.72;1.50;;;;;;;17.20;46.68;99320.84;4490226;31;33341;-67
2023/04/17 06:23:14;;;;;;;3.97;2.42;;;;;;;17.18;45.88;99321.03;4495984;31;32760;-65
2023/04/17 06:25:42;;;;;;;2.25;1.52;;;;;;;17.52;45.54;99314.59;4482906;31;34250;-64
2023/04/17 06:28:09;;;;;;;2.80;1.65;;;;;;;17.46;44.84;99316.13;4491029;31;35040;-62
2023/04/17 06:30:37;;;;;;;1.95;0.98;;;;;;;17.84;44.82;99321.88;4487909;31;31769;-64
2023/04/17 06:33:06;;;;;;;4.18;1.83;;;;;;;17.85;43.37;99326.28;4489664;31;33756;-65
2023/04/17 06:35:34;;;;;;;3.08;2.15;;;;;;;17.56;42.95;99318.66;4497723;31;34030;-63
2023/04/17 06:38:02;;;;;;;4.20;2.37;;;;;;;17.63;43.22;99326.94;4491472;31;33780;-64
2023/04/17 06:40:30;;;;;;;2.97;1.85;;;;;;;17.42;42.39;99320.16;4492517;31;33075;-63
2023/04/17 06:42:57;;;;;;;5.45;2.35;;;;;;;17.38;42.47;99331.50;4483243;31;32512;-63
2023/04/17 06:45:27;;;;;;;4.35;2.00;;;;;;;17.52;42.10;99332.69;4492771;31;33926;-65
2023/04/17 06:47:55;;;;;;;2.62;1.70;;;;;;;17.22;42.53;99332.34;4498647;31;34730;-64
2023/04/17 06:50:23;;;;;;;6.55;2.37;;;;;;;17.70;41.38;99336.06;4495129;31;33062;-63
2023/04/17 06:52:50;;;;;;;2.83;1.55;;;;;;;17.61;41.77;99340.63;4499417;31;34310;-64
2023/04/17 06:55:18;;;;;;;3.20;1.85;;;;;;;17.82;40.33;99342.03;4496163;31;34149;-64
2023/04/17 06:57:45;;;;;;;1.60;1.10;;;;;;;17.56;41.19;99337.63;4496041;31;33460;-67
2023/04/17 07:00:13;;;;;;;2.42;1.17;;;;;;;17.30;42.63;99336.91;4490504;31;33247;-65
2023/04/17 07:02:41;;;;;;;2.33;1.08;;;;;;;17.37;40.75;99344.19;4489778;31;32289;-67
2023/04/17 07:05:09;;;;;;;1.25;0.93;;;;;;;17.50;41.47;99345.56;4495340;31;34055;-65
2023/04/17 07:07:36;;;;;;;3.08;1.48;;;;;;;16.97;42.29;99345.81;4486471;31;33339;-67
2023/04/17 07:10:05;;;;;;;2.97;1.60;;;;;;;17.17;42.06;99337.41;4496182;31;33481;-66
2023/04/17 07:12:33;;;;;;;3.15;1.58;;;;;;;16.93;42.41;99351.72;4490855;31;34806;-66
2023/04/17 07:15:00;;;;;;;1.02;0.68;;;;;;;17.18;41.47;99344.53;4493603;31;33847;-65
2023/04/17 07:17:28;;;;;;;1.85;1.12;;;;;;;17.42;41.11;99344.53;4492789;31;32696;-67
2023/04/17 07:19:55;;;;;;;2.22;1.20;;;;;;;17.28;41.57;99344.38;4498318;31;33637;-65
2023/04/17 07:22:23;;;;;;;2.90;1.30;;;;;;;17.72;40.04;99346.72;4493859;31;33700;-65
2023/04/17 07:24:54;;;;;;;4.18;1.55;;;;;;;17.54;41.63;99344.19;4488252;31;33333;-66
2023/04/17 07:27:21;;;;;;;3.00;1.12;;;;;;;17.75;41.29;99347.22;4497201;31;33564;-65
2023/04/17 07:29:53;;;;;;;6.62;2.17;;;;;;;17.83;41.11;99339.13;4494853;31;34291;-66
2023/04/17 07:32:23;;;;;;;1.58;1.12;;;;;;;17.99;40.41;99340.97;4496273;31;33828;-65
2023/04/17 07:34:50;;;;;;;2.92;2.10;;;;;;;18.00;40.98;99337.25;4498918;31;32832;-64
2023/04/17 07:37:18;;;;;;;2.30;1.35;;;;;;;18.09;40.79;99348.91;4489448;31;34691;-64
2023/04/17 07:39:49;;;;;;;2.28;1.00;;;;;;;18.09;41.39;99343.50;4488746;31;33599;-67
2023/04/17 07:42:17;;;;;;;2.12;1.62;;;;;;;18.05;41.85;99343.00;4493337;31;33693;-64
2023/04/17 07:44:45;;;;;;;2.90;1.52;;;;;;;18.32;42.08;99344.44;4491886;31;32923;-65
2023/04/17 07:47:12;;;;;;;3.37;1.45;;;;;;;18.16;41.93;99353.44;4497859;31;32678;-64
2023/04/17 07:49:40;;;;;;;2.28;1.45;;;;;;;17.76;42.93;99356.22;4491539;31;33943;-65
2023/04/17 07:52:08;;;;;;;2.17;1.52;;;;;;;17.15;44.04;99355.66;4491893;31;33822;-64
2023/04/17 07:54:35;;;;;;;1.65;0.85;;;;;;;17.35;44.19;99359.75;4492927;31;33924;-64
2023/04/17 07:57:03;;;;;;;2.53;0.82;;;;;;;17.48;44.30;99361.09;4494749;31;33718;-65
2023/04/17 07:59:30;;;;;;;1.55;1.08;;;;;;;17.88;43.74;99361.13;4497750;31;32977;-65
2023/04/17 08:01:58;;;;;;;3.25;1.33;;;;;;;17.47;43.69;99357.56;4487640;31;34376;-65
2023/04/17 08:04:26;;;;;;;2.22;1.20;;;;;;;17.34;44.70;99360.75;4495593;31;33851;-66
2023/04/17 08:06:54;;;;;;;2.05;1.30;;;;;;;17.57;43.68;99354.69;4489150;31;33929;-67
2023/04/17 08:09:21;;;;;;;0.90;0.73;;;;;;;17.05;44.07;99363.09;4489423;31;35025;-66
2023/04/17 08:11:49;;;;;;;1.37;1.02;;;;;;;17.43;43.74;99362.47;4485888;31;34792;-64
2023/04/17 08:14:24;;;;;;;2.20;1.35;;;;;;;17.66;43.93;99354.53;4485671;31;32875;-67
2023/04/17 08:16:52;;;;;;;3.67;1.67;;;;;;;18.33;42.43;99362.41;4486110;31;33947;-65
2023/04/17 08:19:19;;;;;;;1.48;0.98;;;;;;;18.65;41.15;99357.88;4495634;31;31167;-64
2023/04/17 08:21:47;;;;;;;4.37;2.08;;;;;;;18.32;42.01;99362.56;4493632;31;33958;-66
2023/04/17 08:24:16;;;;;;;3.03;1.40;;;;;;;18.56;41.67;99367.06;4490108;31;35234;-65
2023/04/17 08:26:46;;;;;;;3.72;1.85;;;;;;;18.70;42.18;99370.91;4490433;31;31935;-65
2023/04/17 08:29:14;;;;;;;2.75;1.27;;;;;;;18.51;41.51;99355.91;4495447;31;34513;-66
2023/04/17 08:31:42;;;;;;;2.05;1.05;;;;;;;18.91;41.31;99364.88;4495885;31;33784;-66
2023/04/17 08:34:09;;;;;;;2.00;1.42;;;;;;;18.91;41.39;99368.47;4491028;31;33876;-65
2023/04/17 08:36:42;;;;;;;5.28;2.03;;;;;;;19.12;40.70;99369.69;4487620;31;33844;-66
2023/04/17 08:39:10;;;;;;;2.05;1.37;;;;;;;18.64;41.30;99358.88;4485537;31;34443;-64
2023/04/17 08:41:46;;;;;;;2.37;1.45;;;;;;;19.05;41.12;99364.97;4489062;31;34854;-64
2023/04/17 08:44:19;;;;;;;2.92;1.60;;;;;;;19.20;40.46;99359.66;4482642;31;35162;-65
2023/04/17 08:46:47;;;;;;;2.53;1.70;;;;;;;18.99;41.09;99367.56;4488228;31;33881;-64
2023/04/17 08:49:15;;;;;;;1.27;1.02;;;;;;;18.75;41.56;99358.53;4483927;31;33352;-65
2023/04/17 08:51:43;;;;;;;2.65;1.58;;;;;;;19.33;40.56;99358.22;4484829;31;35054;-66
2023/04/17 08:54:10;;;;;;;2.65;1.80;;;;;;;19.80;40.71;99354.47;4488079;31;35138;-66
2023/04/17 08:56:38;;;;;;;1.73;0.98;;;;;;;20.02;39.71;99357.12;4493602;31;34129;-65
2023/04/17 08:59:05;;;;;;;6.37;1.52;;;;;;;19.59;39.63;99345.13;4492687;31;34347;-65
2023/04/17 09:01:33;;;;;;;6.35;1.75;;;;;;;19.85;39.66;99349.34;4490042;31;33943;-66
2023/04/17 09:04:01;;;;;;;3.15;1.62;;;;;;;19.92;39.21;99356.53;4495755;31;33938;-65
2023/04/17 09:06:47;;;;;;;4.57;2.25;;;;;;;19.29;40.50;99357.69;4500110;31;32785;-65
2023/04/17 09:09:15;;;;;;;3.75;1.58;;;;;;;19.10;40.45;99345.47;4489092;31;33177;-65
2023/04/17 09:11:42;;;;;;;3.20;1.98;;;;;;;18.99;41.58;99359.44;4488323;31;33634;-65
2023/04/17 09:14:29;;;;;;;2.08;1.30;;;;;;;19.14;40.90;99352.22;4487490;31;34213;-66
2023/04/17 09:16:56;;;;;;;1.92;1.25;;;;;;;19.47;40.24;99349.28;4496297;31;33610;-64
2023/04/17 09:19:24;;;;;;;1.25;0.90;;;;;;;19.31;40.51;99355.66;4484451;31;32110;-66
2023/04/17 09:21:53;;;;;;;2.58;1.35;;;;;;;19.40;40.38;99349.16;4492795;31;35020;-66
2023/04/17 09:24:41;;;;;;;4.60;2.08;;;;;;;19.03;41.93;99352.63;4492535;31;35840;-66
2023/04/17 09:27:25;;;;;;;3.10;1.40;;;;;;;19.16;41.41;99352.87;4487595;31;34063;-65
2023/04/17 09:30:02;;;;;;;3.97;1.45;;;;;;;19.33;41.67;99350.06;4496934;31;33494;-65
2023/04/17 09:32:32;;;;;;;1.98;1.12;;;;;;;19.02;41.58;99351.78;4496158;31;33756;-66
2023/04/17 09:35:02;;;;;;;1.87;1.42;;;;;;;19.38;40.30;99348.47;4495239;31;34920;-64
2023/04/17 09:37:50;;;;;;;4.07;2.25;;;;;;;19.95;39.30;99349.91;4492549;31;33571;-66
2023/04/17 09:40:21;;;;;;;4.00;1.70;;;;;;;19.14;40.38;99349.50;4487894;31;33370;-63
2023/04/17 09:43:00;;;;;;;3.20;1.75;;;;;;;19.92;40.21;99344.84;4494672;31;34081;-64
2023/04/17 09:45:34;;;;;;;3.00;1.52;;;;;;;19.22;41.01;99349.44;4491955;31;32545;-64
2023/04/17 09:48:06;;;;;;;8.13;2.40;;;;;;;19.51;40.47;99339.72;4490154;31;33031;-64
2023/04/17 09:50:34;;;;;;;5.70;1.85;;;;;;;18.80;41.69;99350.72;4498941;31;33759;-64
2023/04/17 09:53:06;;;;;;;3.53;2.20;;;;;;;19.20;41.42;99339.81;4494779;31;33154;-64
2023/04/17 09:55:35;;;;;;;2.03;1.15;;;;;;;19.74;40.28;99335.19;4488997;31;34505;-64
2023/04/17 09:58:05;;;;;;;1.55;1.05;;;;;;;19.84;40.16;99334.03;4497804;31;31710;-64
2023/04/17 10:00:32;;;;;;;1.87;0.65;;;;;;;19.29;40.45;99339.59;4492034;31;34539;-66
2023/04/17 10:03:00;;;;;;;1.15;0.75;;;;;;;19.26;39.48;99339.94;4493800;31;33821;-65
2023/04/17 10:05:30;;;;;;;2.28;1.08;;;;;;;19.25;38.90;99330.09;4490659;31;34047;-64
2023/04/17 10:07:58;;;;;;;2.15;1.35;;;;;;;18.50;39.73;99327.94;4498061;31;33916;-66
2023/04/17 10:10:31;;;;;;;6.47;1.50;;;;;;;18.77;39.84;99326.66;4499458;31;31606;-63
2023/04/17 10:13:01;;;;;;;2.05;1.37;;;;;;;18.76;39.80;99319.56;4490647;31;35388;-66
2023/04/17 10:15:30;;;;;;;4.00;1.58;;;;;;;19.21;39.63;99323.34;4483406;31;33989;-65
2023/04/17 10:18:18;;;;;;;7.10;1.70;;;;;;;19.53;40.58;99322.25;4495395;31;33636;-64
2023/04/17 10:20:49;;;;;;;1.75;0.98;;;;;;;19.47;40.30;99319.41;4486250;31;32979;-64
2023/04/17 10:23:31;;;;;;;1.65;1.08;;;;;;;19.59;38.62;99309.81;4498697;31;34019;-63
2023/04/17 10:26:24;;;;;;;1.35;0.95;;;;;;;19.81;39.16;99304.53;4501325;31;34146;-64
2023/04/17 10:28:53;;;;;;;1.17;0.82;;;;;;;19.62;39.04;99317.59;4488951;31;33909;-64
2023/04/17 10:31:22;;;;;;;1.30;0.80;;;;;;;19.64;37.46;99312.84;4493424;31;33202;-65
2023/04/17 10:33:51;;;;;;;2.47;1.23;;;;;;;19.38;37.71;99318.62;4495465;31;32367;-65
2023/04/17 10:36:39;;;;;;;3.92;1.05;;;;;;;19.21;38.77;99311.66;4489644;31;34260;-64
2023/04/17 10:39:19;;;;;;;2.85;1.02;;;;;;;19.57;39.37;99314.59;4481815;31;34934;-66
2023/04/17 10:42:03;;;;;;;2.62;1.52;;;;;;;19.48;39.19;99312.97;4491606;31;32654;-63
2023/04/17 10:44:34;;;;;;;2.55;1.35;;;;;;;19.31;39.23;99318.53;4488902;31;34670;-63
2023/04/17 10:47:06;;;;;;;1.65;1.12;;;;;;;19.28;38.84;99318.03;4486118;31;33941;-63
2023/04/17 10:50:07;;;;;;;2.67;1.23;;;;;;;19.28;38.45;99307.19;4499137;31;34079;-63
2023/04/17 10:52:40;;;;;;;1.70;1.02;;;;;;;19.40;38.77;99305.75;4458403;31;34310;-63
2023/04/17 10:55:14;;;;;;;4.68;1.65;;;;;;;19.25;38.95;99311.09;4492790;31;33606;-64
2023/04/17 10:57:57;;;;;;;2.65;1.10;;;;;;;19.50;39.31;99297.34;4492793;31;34017;-64
2023/04/17 11:00:36;;;;;;;3.90;1.87;;;;;;;19.75;39.21;99314.28;4488466;31;33889;-64
2023/04/17 11:03:05;;;;;;;5.62;1.37;;;;;;;19.63;38.80;99305.69;4490776;31;33126;-64
2023/04/17 11:05:34;;;;;;;1.98;1.30;;;;;;;18.63;41.05;99313.84;4496865;31;33617;-63
2023/04/17 11:08:02;;;;;;;1.52;1.25;;;;;;;18.84;40.54;99305.97;4496132;31;34132;-64
2023/04/17 11:10:34;;;;;;;2.67;1.62;;;;;;;19.08;39.87;99301.41;4491893;31;33709;-63
2023/04/17 11:13:01;;;;;;;3.40;1.77;;;;;;;18.97;39.95;99304.50;4498254;31;34485;-65
2023/04/17 11:15:31;;;;;;;2.60;1.27;;;;;;;19.53;39.85;99305.13;4498998;31;33828;-63
2023/04/17 11:17:59;;;;;;;3.22;1.73;;;;;;;19.13;40.34;99309.00;4489563;31;33516;-64
2023/04/17 11:20:28;;;;;;;3.83;1.90;;;;;;;18.48;41.83;99305.59;4489360;31;33598;-64
2023/04/17 11:23:01;;;;;;;3.25;2.08;;;;;;;19.31;40.43;99302.25;4495080;31;34507;-64
2023/04/17 11:25:30;;;;;;;2.83;1.90;;;;;;;19.13;40.37;99303.56;4493835;31;33633;-64
2023/04/17 11:28:04;;;;;;;4.78;2.50;;;;;;;18.47;41.33;99309.34;4496058;31;34259;-65
2023/04/17 11:30:34;;;;;;;2.87;2.12;;;;;;;18.65;41.28;99311.81;4487601;31;35079;-64
2023/04/17 11:33:03;;;;;;;3.72;1.23;;;;;;;19.21;40.58;99306.22;4489622;31;33440;-64
2023/04/17 11:35:36;;;;;;;2.28;1.65;;;;;;;18.66;41.24;99299.09;4494824;31;34666;-64
2023/04/17 11:38:20;;;;;;;3.10;1.52;;;;;;;18.99;40.93;99307.91;4493526;31;35061;-64
2023/04/17 11:40:53;;;;;;;4.27;1.73;;;;;;;18.96;40.98;99300.13;4488916;31;33748;-64
2023/04/17 11:43:22;;;;;;;4.55;2.72;;;;;;;18.64;41.23;99301.97;4496855;31;33159;-65
2023/04/17 11:45:57;;;;;;;3.55;1.98;;;;;;;18.85;40.90;99294.09;4496374;31;34707;-64